TimeCDT,TemperatureF,Dew PointF,Humidity,Sea Level PressureIn,VisibilityMPH,Wind Direction,Wind SpeedMPH,Gust SpeedMPH,PrecipitationIn,Events,Conditions,WindDirDegrees,DateUTC
12:54 AM,54.0,48.0,80,29.94,10.0,SSE,5.8,-,N/A,,Partly Cloudy,150,2012-03-23 05:54:00
1:54 AM,55.9,46.0,69,29.94,10.0,South,11.5,20.7,N/A,,Clear,180,2012-03-23 06:54:00
2:54 AM,55.0,44.1,67,29.92,10.0,South,10.4,-,N/A,,Scattered Clouds,190,2012-03-23 07:54:00
3:54 AM,53.1,45.0,74,29.90,10.0,SSE,6.9,-,N/A,,Mostly Cloudy,150,2012-03-23 08:54:00
4:54 AM,53.1,45.0,74,29.88,10.0,SE,5.8,-,N/A,,Overcast,130,2012-03-23 09:54:00
5:54 AM,52.0,46.9,83,29.86,10.0,ENE,8.1,-,0.01,Rain,Light Rain,60,2012-03-23 10:54:00
6:54 AM,52.0,46.9,83,29.86,10.0,ENE,10.4,-,0.00,,Overcast,70,2012-03-23 11:54:00
7:54 AM,53.1,46.9,80,29.86,10.0,East,6.9,-,0.00,,Overcast,100,2012-03-23 12:54:00
8:54 AM,54.0,46.0,75,29.86,10.0,East,10.4,-,0.00,,Overcast,90,2012-03-23 13:54:00
9:54 AM,53.1,48.9,86,29.87,6.0,East,4.6,-,0.04,Rain,Light Rain,80,2012-03-23 14:54:00
10:54 AM,53.1,50.0,89,29.88,10.0,NE,6.9,-,0.02,Rain,Light Rain,40,2012-03-23 15:54:00
11:54 AM,54.0,50.0,86,29.86,9.0,North,9.2,-,0.00,Rain,Light Rain,10,2012-03-23 16:54:00
12:46 PM,55.4,51.8,88,29.86,10.0,NNE,8.1,-,0.00,,Overcast,30,2012-03-23 17:46:00
12:54 PM,57.0,51.1,81,29.86,10.0,North,8.1,-,0.00,,Overcast,360,2012-03-23 17:54:00
1:12 PM,55.4,51.8,88,29.85,10.0,NNW,8.1,-,N/A,,Overcast,340,2012-03-23 18:12:00
1:33 PM,57.2,51.8,82,29.85,10.0,NNW,10.4,-,N/A,,Overcast,330,2012-03-23 18:33:00
1:54 PM,57.0,52.0,83,29.84,10.0,NNW,10.4,-,N/A,,Overcast,340,2012-03-23 18:54:00
2:05 PM,57.2,51.8,82,29.84,10.0,NNW,10.4,-,N/A,,Mostly Cloudy,340,2012-03-23 19:05:00
2:26 PM,59.0,51.8,77,29.83,10.0,North,11.5,-,N/A,,Mostly Cloudy,350,2012-03-23 19:26:00
2:51 PM,60.8,51.8,72,29.83,10.0,NW,12.7,-,N/A,,Mostly Cloudy,320,2012-03-23 19:51:00
2:54 PM,60.1,51.1,72,29.82,10.0,NNW,13.8,-,N/A,,Mostly Cloudy,330,2012-03-23 19:54:00
3:54 PM,60.1,50.0,69,29.82,10.0,WNW,6.9,-,N/A,,Partly Cloudy,300,2012-03-23 20:54:00
4:33 PM,59.0,48.2,67,29.82,10.0,WNW,8.1,-,N/A,,Overcast,300,2012-03-23 21:33:00
4:54 PM,59.0,48.0,67,29.83,10.0,West,6.9,-,0.00,,Overcast,260,2012-03-23 21:54:00
5:12 PM,57.2,51.8,82,29.83,10.0,SW,12.7,-,N/A,,Mostly Cloudy,220,2012-03-23 22:12:00
5:35 PM,55.4,51.8,88,29.84,10.0,SW,9.2,-,N/A,,Mostly Cloudy,220,2012-03-23 22:35:00
5:41 PM,57.2,51.8,82,29.84,10.0,WSW,8.1,-,N/A,Thunderstorm,Thunderstorm,240,2012-03-23 22:41:00
5:52 PM,55.4,50.0,82,29.84,9.0,WSW,8.1,-,0.00,Rain,Light Rain,240,2012-03-23 22:52:00
5:54 PM,55.9,50.0,80,29.84,7.0,WSW,6.9,-,0.00,Rain-Thunderstorm,Thunderstorms and Rain,240,2012-03-23 22:54:00
6:01 PM,55.4,51.8,88,29.84,4.0,WSW,6.9,-,0.01,Rain-Thunderstorm,Light Thunderstorms and Rain,250,2012-03-23 23:01:00
6:14 PM,55.4,51.8,88,29.85,8.0,Calm,Calm,-,0.03,Rain-Thunderstorm,Thunderstorms and Rain,0,2012-03-23 23:14:00
6:21 PM,55.4,51.8,88,29.85,3.0,SSW,3.5,-,0.04,Rain,Heavy Rain,200,2012-03-23 23:21:00
6:40 PM,53.6,51.8,94,29.84,6.0,SW,8.1,-,0.11,Rain,Rain,230,2012-03-23 23:40:00
6:54 PM,54.0,52.0,93,29.84,10.0,SW,6.9,-,0.14,Rain,Light Rain,230,2012-03-23 23:54:00
7:19 PM,53.6,51.8,94,29.85,1.8,WSW,3.5,-,0.04,Rain,Heavy Rain,250,2012-03-24 00:19:00
7:27 PM,53.6,53.6,100,29.85,1.8,WSW,3.5,-,0.16,Rain,Heavy Rain,250,2012-03-24 00:27:00
7:29 PM,53.6,53.6,100,29.85,2.5,SW,5.8,-,0.17,Rain,Rain,230,2012-03-24 00:29:00
7:36 PM,53.6,51.8,94,29.85,9.0,SW,8.1,-,0.18,Rain,Light Rain,230,2012-03-24 00:36:00
7:54 PM,54.0,52.0,93,29.84,10.0,WSW,9.2,-,0.19,Rain,Light Rain,250,2012-03-24 00:54:00
8:54 PM,53.1,52.0,96,29.86,10.0,WSW,6.9,-,N/A,,Mostly Cloudy,240,2012-03-24 01:54:00
9:54 PM,54.0,52.0,93,29.87,10.0,West,8.1,-,0.00,Rain-Thunderstorm,Light Rain,280,2012-03-24 02:54:00
10:14 PM,53.6,51.8,94,29.89,7.0,North,10.4,-,0.02,Rain,Light Rain,360,2012-03-24 03:14:00
10:54 PM,53.1,51.1,93,29.86,10.0,West,8.1,-,0.10,Rain,Light Rain,270,2012-03-24 03:54:00
11:54 PM,52.0,50.0,93,29.86,10.0,West,9.2,-,0.00,,Overcast,280,2012-03-24 04:54:00